Time;durP1;ratioP1;P1;durP2;ratioP2;P2;SDS_P1;SDS_P2;PMS_P1;PMS_P2;Temp;Humidity;BMP_temperature;BMP_pressure;BME280_temperature;BME280_humidity;BME280_pressure;Samples;Min_cycle;Max_cycle;Signal;HPM_P1;HPM_P2
2023/03/31 00:01:10;;;;;;;;;;;16.40;64.00;;;;;;5033266;28;19925;-59
2023/03/31 00:03:37;;;;;;;;;;;16.20;64.10;;;;;;5052229;28;19996;-59
2023/03/31 00:06:03;;;;;;;;;;;16.20;64.30;;;;;;5051969;28;19924;-59
2023/03/31 00:08:34;;;;;;;;;;;16.20;64.40;;;;;;5051721;28;19913;-58
2023/03/31 00:11:00;;;;;;;;;;;16.20;64.40;;;;;;5046186;28;20254;-59
2023/03/31 00:13:26;;;;;;;;;;;16.10;64.10;;;;;;5033064;28;19913;-58
2023/03/31 00:15:59;;;;;;;;;;;16.00;64.20;;;;;;5032915;28;19923;-59
2023/03/31 00:18:25;;;;;;;;;;;15.90;64.00;;;;;;5033003;28;19914;-59
2023/03/31 00:20:51;;;;;;;;;;;15.90;64.10;;;;;;5032802;28;19917;-59
2023/03/31 00:23:17;;;;;;;;;;;15.80;64.00;;;;;;5031954;28;20007;-62
2023/03/31 00:25:43;;;;;;;;;;;15.80;63.90;;;;;;5029990;28;20124;-58
2023/03/31 00:28:09;;;;;;;;;;;15.80;63.90;;;;;;5032757;28;20333;-59
2023/03/31 00:30:35;;;;;;;;;;;15.70;63.80;;;;;;5032985;28;19920;-59
2023/03/31 00:33:00;;;;;;;;;;;15.70;63.80;;;;;;5032417;28;20292;-59
2023/03/31 00:35:25;;;;;;;;;;;15.60;63.90;;;;;;5039963;28;20009;-59
2023/03/31 00:37:52;;;;;;;;;;;15.60;63.80;;;;;;5052356;28;19913;-60
2023/03/31 00:40:18;;;;;;;;;;;15.50;63.70;;;;;;5052083;28;19927;-59
2023/03/31 00:42:45;;;;;;;;;;;15.50;63.80;;;;;;5052766;28;20262;-59
2023/03/31 00:45:13;;;;;;;;;;;15.40;64.00;;;;;;5039534;28;19923;-59
2023/03/31 00:47:41;;;;;;;;;;;15.40;64.20;;;;;;5031300;28;20028;-59
2023/03/31 00:50:19;;;;;;;;;;;15.40;64.30;;;;;;5028227;28;19921;-59
2023/03/31 00:52:45;;;;;;;;;;;15.40;64.40;;;;;;5020415;28;19924;-59
2023/03/31 00:55:14;;;;;;;;;;;15.40;64.50;;;;;;5030988;28;19920;-59
2023/03/31 00:57:43;;;;;;;;;;;15.40;64.50;;;;;;5023866;28;20399;-59
2023/03/31 01:00:14;;;;;;;;;;;15.40;64.30;;;;;;5031076;28;20356;-59
2023/03/31 01:02:45;;;;;;;;;;;15.30;64.40;;;;;;5034650;28;19979;-59
2023/03/31 01:05:10;;;;;;;;;;;15.30;64.40;;;;;;5031582;28;19913;-59
2023/03/31 01:07:45;;;;;;;;;;;15.30;64.30;;;;;;5031031;28;20300;-63
2023/03/31 01:10:10;;;;;;;;;;;15.30;64.20;;;;;;5029554;28;19936;-61
2023/03/31 01:12:38;;;;;;;;;;;15.30;64.20;;;;;;5031835;28;19914;-59
2023/03/31 01:15:03;;;;;;;;;;;15.30;64.20;;;;;;5030653;28;19913;-59
2023/03/31 01:17:29;;;;;;;;;;;15.20;64.20;;;;;;5029804;28;20400;-58
2023/03/31 01:20:11;;;;;;;;;;;15.20;64.00;;;;;;5028899;28;20075;-59
2023/03/31 01:22:51;;;;;;;;;;;15.20;64.00;;;;;;5025647;28;19917;-58
2023/03/31 01:25:29;;;;;;;;;;;15.10;64.00;;;;;;5030647;28;19963;-58
2023/03/31 01:28:06;;;;;;;;;;;15.10;63.90;;;;;;5030749;28;19925;-58
2023/03/31 01:30:31;;;;;;;;;;;15.00;63.90;;;;;;5022674;28;19917;-58
2023/03/31 01:33:08;;;;;;;;;;;15.00;63.90;;;;;;5031475;28;19909;-58
2023/03/31 01:35:36;;;;;;;;;;;14.90;64.00;;;;;;5030335;28;19924;-58
2023/03/31 01:38:13;;;;;;;;;;;14.90;63.90;;;;;;5031322;28;20300;-58
2023/03/31 01:40:51;;;;;;;;;;;14.90;63.90;;;;;;5013781;28;20012;-59
2023/03/31 01:43:25;;;;;;;;;;;14.90;63.90;;;;;;5028323;28;20292;-59
2023/03/31 01:45:50;;;;;;;;;;;14.80;64.00;;;;;;5033622;28;20016;-58
2023/03/31 01:48:23;;;;;;;;;;;14.80;64.00;;;;;;5035851;28;19957;-59
2023/03/31 01:51:00;;;;;;;;;;;14.80;64.00;;;;;;5021202;28;19918;-58
2023/03/31 01:53:32;;;;;;;;;;;14.80;64.20;;;;;;5017988;28;19967;-58
2023/03/31 01:56:03;;;;;;;;;;;14.80;64.40;;;;;;5031530;28;20296;-58
2023/03/31 01:58:31;;;;;;;;;;;14.80;64.50;;;;;;5018955;28;20273;-59
2023/03/31 02:01:00;;;;;;;;;;;14.80;64.80;;;;;;5011740;28;19918;-58
2023/03/31 02:03:33;;;;;;;;;;;14.90;64.80;;;;;;5047002;28;20363;-58
2023/03/31 02:06:01;;;;;;;;;;;15.00;64.70;;;;;;5051338;28;20287;-58
2023/03/31 02:08:32;;;;;;;;;;;15.00;64.70;;;;;;5051176;28;19913;-58
2023/03/31 02:10:58;;;;;;;;;;;15.10;64.70;;;;;;5043871;28;19914;-62
2023/03/31 02:13:25;;;;;;;;;;;15.10;64.70;;;;;;5031159;28;19913;-59
2023/03/31 02:15:53;;;;;;;;;;;15.10;64.50;;;;;;5031084;28;19999;-58
2023/03/31 02:18:21;;;;;;;;;;;15.10;64.80;;;;;;5031133;28;19979;-59
2023/03/31 02:20:47;;;;;;;;;;;15.20;64.60;;;;;;5030937;28;19947;-58
2023/03/31 02:23:14;;;;;;;;;;;15.20;64.70;;;;;;5031088;28;19909;-59
2023/03/31 02:25:51;;;;;;;;;;;15.20;64.60;;;;;;5029012;28;19996;-58
2023/03/31 02:28:25;;;;;;;;;;;15.20;64.70;;;;;;5015415;28;19921;-58
2023/03/31 02:30:55;;;;;;;;;;;15.30;64.80;;;;;;5029933;28;20365;-59
2023/03/31 02:33:21;;;;;;;;;;;15.30;64.80;;;;;;5028597;28;19928;-58
2023/03/31 02:35:46;;;;;;;;;;;15.40;65.00;;;;;;5018363;28;20364;-60
2023/03/31 02:38:12;;;;;;;;;;;15.50;65.10;;;;;;5011145;28;19924;-60
2023/03/31 02:40:37;;;;;;;;;;;15.50;65.00;;;;;;5026468;28;19921;-58
2023/03/31 02:43:03;;;;;;;;;;;15.60;65.00;;;;;;5015992;28;19914;-59
2023/03/31 02:45:39;;;;;;;;;;;15.60;64.90;;;;;;5011364;28;19924;-63
2023/03/31 02:48:06;;;;;;;;;;;15.70;64.90;;;;;;5018468;28;20364;-58
2023/03/31 02:50:38;;;;;;;;;;;15.70;64.90;;;;;;5018324;28;19917;-58
2023/03/31 02:53:19;;;;;;;;;;;15.70;64.90;;;;;;5011060;28;20323;-58
2023/03/31 02:55:52;;;;;;;;;;;15.80;64.90;;;;;;5030490;28;19963;-58
2023/03/31 02:58:28;;;;;;;;;;;15.90;64.90;;;;;;5019710;28;19913;-60
2023/03/31 03:01:00;;;;;;;;;;;16.00;64.90;;;;;;5027946;28;19917;-58
2023/03/31 03:03:36;;;;;;;;;;;16.10;64.70;;;;;;5051694;28;20288;-58
2023/03/31 03:06:12;;;;;;;;;;;16.10;64.80;;;;;;5054074;28;20146;-58
2023/03/31 03:08:43;;;;;;;;;;;16.10;64.80;;;;;;5054484;28;20008;-58
2023/03/31 03:11:27;;;;;;;;;;;16.20;64.60;;;;;;5054315;28;20335;-59
2023/03/31 03:14:05;;;;;;;;;;;16.20;64.70;;;;;;5012967;28;19918;-58
2023/03/31 03:16:39;;;;;;;;;;;16.20;64.60;;;;;;5014285;28;19913;-60
2023/03/31 03:19:06;;;;;;;;;;;16.20;64.50;;;;;;5014269;28;19913;-58
2023/03/31 03:21:32;;;;;;;;;;;16.20;64.50;;;;;;5013949;28;19918;-59
2023/03/31 03:23:58;;;;;;;;;;;16.20;64.30;;;;;;5019972;28;19919;-58
2023/03/31 03:26:26;;;;;;;;;;;16.00;64.60;;;;;;5042794;28;19917;-59
2023/03/31 03:28:55;;;;;;;;;;;16.00;64.60;;;;;;5014179;28;20005;-59
2023/03/31 03:31:22;;;;;;;;;;;16.00;64.60;;;;;;5019842;28;20380;-61
2023/03/31 03:33:48;;;;;;;;;;;16.00;64.50;;;;;;5033848;28;19960;-61
2023/03/31 03:36:14;;;;;;;;;;;15.90;64.50;;;;;;5031753;28;20354;-59
2023/03/31 03:38:39;;;;;;;;;;;15.80;64.60;;;;;;5032513;28;19963;-60
2023/03/31 03:41:05;;;;;;;;;;;15.80;64.60;;;;;;5032411;28;19962;-63
2023/03/31 03:43:30;;;;;;;;;;;15.80;64.70;;;;;;5032146;28;19952;-59
2023/03/31 03:45:56;;;;;;;;;;;15.70;64.80;;;;;;5027451;28;20441;-59
2023/03/31 03:48:21;;;;;;;;;;;15.70;65.00;;;;;;5025861;28;19913;-59
2023/03/31 03:50:47;;;;;;;;;;;15.70;65.20;;;;;;5033519;28;19967;-59
2023/03/31 03:53:12;;;;;;;;;;;15.70;65.20;;;;;;5033437;28;19917;-59
2023/03/31 03:55:38;;;;;;;;;;;15.60;65.30;;;;;;5033348;28;20014;-63
2023/03/31 03:58:03;;;;;;;;;;;15.60;65.40;;;;;;5023959;28;19909;-60
2023/03/31 04:00:29;;;;;;;;;;;15.60;65.60;;;;;;5011927;28;20266;-60
2023/03/31 04:02:54;;;;;;;;;;;15.60;65.60;;;;;;5013380;28;19948;-59
2023/03/31 04:05:20;;;;;;;;;;;15.60;65.60;;;;;;5016935;28;20264;-59
2023/03/31 04:07:45;;;;;;;;;;;15.60;65.60;;;;;;5033110;28;19923;-61
2023/03/31 04:10:10;;;;;;;;;;;15.50;65.70;;;;;;5033201;28;19962;-60
2023/03/31 04:12:36;;;;;;;;;;;15.60;65.70;;;;;;5032928;28;20007;-59
2023/03/31 04:15:02;;;;;;;;;;;15.60;65.80;;;;;;5033276;28;20044;-60
2023/03/31 04:17:33;;;;;;;;;;;15.60;65.70;;;;;;5032753;28;19913;-59
2023/03/31 04:20:00;;;;;;;;;;;15.70;65.80;;;;;;5033044;28;20479;-64
2023/03/31 04:22:28;;;;;;;;;;;15.60;65.70;;;;;;5032905;28;19921;-59
2023/03/31 04:24:57;;;;;;;;;;;15.60;65.80;;;;;;5030028;28;19956;-60
2023/03/31 04:27:26;;;;;;;;;;;15.60;65.80;;;;;;5029271;28;19917;-60
2023/03/31 04:29:53;;;;;;;;;;;15.60;65.90;;;;;;5031091;28;19991;-60
2023/03/31 04:32:20;;;;;;;;;;;15.70;65.80;;;;;;5032622;28;19917;-60
2023/03/31 04:34:46;;;;;;;;;;;15.70;65.70;;;;;;5035650;28;19975;-67
2023/03/31 04:37:11;;;;;;;;;;;15.70;65.70;;;;;;5035770;28;19948;-60
2023/03/31 04:39:37;;;;;;;;;;;15.70;65.70;;;;;;5032264;28;19975;-60
2023/03/31 04:42:02;;;;;;;;;;;15.70;65.80;;;;;;5030471;28;19928;-62
2023/03/31 04:44:28;;;;;;;;;;;15.70;65.70;;;;;;5019430;28;19913;-60
2023/03/31 04:46:53;;;;;;;;;;;15.70;65.60;;;;;;5018014;28;19917;-60
2023/03/31 04:49:19;;;;;;;;;;;15.70;65.70;;;;;;5018229;28;19921;-60
2023/03/31 04:51:44;;;;;;;;;;;15.70;65.60;;;;;;5030521;28;20123;-60
2023/03/31 04:54:10;;;;;;;;;;;15.70;65.70;;;;;;5032338;28;19975;-60
2023/03/31 04:56:35;;;;;;;;;;;15.70;65.60;;;;;;5020480;28;20370;-63
2023/03/31 04:59:02;;;;;;;;;;;15.70;65.60;;;;;;5012319;28;20753;-60
2023/03/31 05:01:31;;;;;;;;;;;15.70;65.70;;;;;;5017476;28;19953;-60
2023/03/31 05:03:57;;;;;;;;;;;15.70;65.70;;;;;;5051949;28;20019;-60
2023/03/31 05:06:22;;;;;;;;;;;15.70;65.60;;;;;;5051996;28;20398;-61
2023/03/31 05:08:48;;;;;;;;;;;15.70;65.60;;;;;;5051810;28;19948;-60
2023/03/31 05:11:13;;;;;;;;;;;15.70;65.60;;;;;;5039371;28;19956;-60
2023/03/31 05:13:39;;;;;;;;;;;15.70;65.60;;;;;;5031862;28;19913;-60
2023/03/31 05:16:05;;;;;;;;;;;15.70;65.50;;;;;;5021221;28;19918;-60
2023/03/31 05:18:31;;;;;;;;;;;15.70;65.70;;;;;;5011932;28;20356;-60
2023/03/31 05:20:56;;;;;;;;;;;15.70;65.60;;;;;;5017085;28;19921;-60
2023/03/31 05:23:22;;;;;;;;;;;15.70;65.60;;;;;;5030950;28;19956;-60
2023/03/31 05:25:47;;;;;;;;;;;15.70;65.50;;;;;;5030570;28;19917;-64
2023/03/31 05:28:12;;;;;;;;;;;15.70;65.50;;;;;;5031668;28;20050;-60
2023/03/31 05:30:38;;;;;;;;;;;15.70;65.60;;;;;;5026295;28;20339;-60
2023/03/31 05:33:03;;;;;;;;;;;15.70;65.70;;;;;;5026915;28;19919;-60
2023/03/31 05:35:29;;;;;;;;;;;15.60;65.80;;;;;;5032772;28;19924;-60
2023/03/31 05:37:54;;;;;;;;;;;15.60;65.90;;;;;;5017418;28;20308;-60
2023/03/31 05:40:20;;;;;;;;;;;15.70;65.70;;;;;;5020597;28;20016;-60
2023/03/31 05:42:47;;;;;;;;;;;15.70;65.90;;;;;;5029064;28;22543;-63
2023/03/31 05:45:12;;;;;;;;;;;15.70;65.90;;;;;;5029792;28;20011;-66
2023/03/31 05:47:38;;;;;;;;;;;15.70;65.80;;;;;;5028527;28;19949;-63
2023/03/31 05:50:06;;;;;;;;;;;15.70;65.80;;;;;;5029103;28;19913;-60
2023/03/31 05:52:32;;;;;;;;;;;15.70;65.80;;;;;;5029925;28;19913;-60
2023/03/31 05:54:57;;;;;;;;;;;15.70;65.80;;;;;;5028178;28;19959;-61
2023/03/31 05:57:22;;;;;;;;;;;15.70;65.80;;;;;;5029560;28;20428;-59
2023/03/31 05:59:48;;;;;;;;;;;15.70;65.90;;;;;;5031402;28;19924;-60
2023/03/31 06:02:13;;;;;;;;;;;15.70;65.90;;;;;;5029973;28;19921;-60
2023/03/31 06:04:39;;;;;;;;;;;15.70;65.80;;;;;;5031400;28;19962;-59
2023/03/31 06:07:04;;;;;;;;;;;15.70;65.80;;;;;;5029711;28;19917;-60
2023/03/31 06:09:30;;;;;;;;;;;15.80;65.90;;;;;;5031371;28;19967;-59
2023/03/31 06:11:55;;;;;;;;;;;15.80;65.90;;;;;;5029555;28;19971;-61
2023/03/31 06:14:21;;;;;;;;;;;15.80;65.90;;;;;;5031010;28;19913;-67
2023/03/31 06:16:47;;;;;;;;;;;15.80;65.90;;;;;;5030125;28;19923;-60
2023/03/31 06:19:12;;;;;;;;;;;15.90;66.00;;;;;;5030178;28;20371;-60
2023/03/31 06:21:38;;;;;;;;;;;15.80;65.80;;;;;;5030885;28;19921;-60
2023/03/31 06:24:03;;;;;;;;;;;15.80;65.90;;;;;;5028887;28;19913;-60
2023/03/31 06:26:29;;;;;;;;;;;15.90;65.70;;;;;;5030782;28;20327;-60
2023/03/31 06:28:54;;;;;;;;;;;15.90;65.80;;;;;;5030705;28;19917;-64
2023/03/31 06:31:21;;;;;;;;;;;15.90;65.80;;;;;;5034473;28;19919;-59
2023/03/31 06:33:47;;;;;;;;;;;15.90;65.80;;;;;;5038955;28;20281;-61
2023/03/31 06:36:14;;;;;;;;;;;15.90;65.80;;;;;;5039863;28;19924;-61
2023/03/31 06:38:40;;;;;;;;;;;15.90;65.60;;;;;;5027685;28;20338;-59
2023/03/31 06:41:06;;;;;;;;;;;16.00;65.80;;;;;;5032141;28;19956;-59
2023/03/31 06:43:31;;;;;;;;;;;16.00;65.70;;;;;;5014861;28;19914;-61
2023/03/31 06:45:57;;;;;;;;;;;16.00;65.70;;;;;;5014319;28;20004;-59
2023/03/31 06:48:23;;;;;;;;;;;16.10;65.80;;;;;;5034562;28;19917;-59
2023/03/31 06:50:49;;;;;;;;;;;16.20;65.80;;;;;;5034342;28;20265;-59
2023/03/31 06:53:14;;;;;;;;;;;16.20;65.90;;;;;;5015404;28;19939;-60
2023/03/31 06:55:40;;;;;;;;;;;16.30;65.80;;;;;;5015123;28;19965;-60
2023/03/31 06:58:05;;;;;;;;;;;16.20;65.90;;;;;;5032052;28;20015;-60
2023/03/31 07:00:31;;;;;;;;;;;16.40;65.80;;;;;;5034235;28;19921;-60
2023/03/31 07:02:57;;;;;;;;;;;16.40;65.70;;;;;;5016883;28;19925;-60
2023/03/31 07:05:26;;;;;;;;;;;16.40;65.60;;;;;;5025075;28;19917;-60
2023/03/31 07:07:52;;;;;;;;;;;16.30;65.50;;;;;;5034414;28;19945;-60
2023/03/31 07:10:17;;;;;;;;;;;16.30;65.40;;;;;;5024015;28;20292;-59
2023/03/31 07:12:43;;;;;;;;;;;16.30;65.20;;;;;;5014429;28;19917;-60
2023/03/31 07:15:09;;;;;;;;;;;16.30;65.30;;;;;;5022768;28;19913;-60
2023/03/31 07:17:36;;;;;;;;;;;16.10;65.30;;;;;;5023970;28;19957;-59
2023/03/31 07:20:03;;;;;;;;;;;16.10;65.40;;;;;;5014970;28;19980;-59
2023/03/31 07:22:29;;;;;;;;;;;16.00;65.50;;;;;;5012833;28;20000;-60
2023/03/31 07:24:54;;;;;;;;;;;16.00;65.60;;;;;;5012537;28;19917;-59
2023/03/31 07:27:20;;;;;;;;;;;16.00;65.70;;;;;;5014199;28;19914;-59
2023/03/31 07:29:45;;;;;;;;;;;16.10;65.90;;;;;;5029776;28;20012;-60
2023/03/31 07:32:11;;;;;;;;;;;16.10;66.00;;;;;;5033878;28;20011;-60
2023/03/31 07:34:37;;;;;;;;;;;16.20;66.10;;;;;;5043633;28;19920;-60
2023/03/31 07:37:03;;;;;;;;;;;16.20;66.00;;;;;;5053722;28;19924;-60
2023/03/31 07:39:28;;;;;;;;;;;16.30;65.90;;;;;;5022305;28;20316;-60
2023/03/31 07:41:54;;;;;;;;;;;16.30;66.00;;;;;;5013771;28;19975;-60
2023/03/31 07:44:20;;;;;;;;;;;16.40;65.90;;;;;;5027043;28;20373;-60
2023/03/31 07:46:46;;;;;;;;;;;16.50;65.90;;;;;;5032799;28;20284;-60
2023/03/31 07:49:14;;;;;;;;;;;16.60;65.80;;;;;;5032685;28;19913;-60
2023/03/31 07:51:40;;;;;;;;;;;16.80;65.90;;;;;;5033481;28;19913;-60
2023/03/31 07:54:05;;;;;;;;;;;16.90;65.90;;;;;;5031723;28;20372;-64
2023/03/31 07:56:31;;;;;;;;;;;16.90;65.80;;;;;;5031094;28;19917;-60
2023/03/31 07:58:56;;;;;;;;;;;17.00;65.40;;;;;;5028484;28;19940;-60
2023/03/31 08:01:24;;;;;;;;;;;17.00;65.50;;;;;;5033275;28;19921;-60
2023/03/31 08:03:53;;;;;;;;;;;17.10;65.10;;;;;;5033610;28;19919;-60
2023/03/31 08:06:22;;;;;;;;;;;17.10;65.00;;;;;;5017828;28;20011;-60
2023/03/31 08:08:49;;;;;;;;;;;17.10;65.00;;;;;;5026985;28;19952;-60
2023/03/31 08:11:14;;;;;;;;;;;17.00;64.80;;;;;;5016818;28;19968;-60
2023/03/31 08:13:40;;;;;;;;;;;17.00;64.30;;;;;;5020316;28;19913;-66
2023/03/31 08:16:05;;;;;;;;;;;17.00;64.40;;;;;;5024719;28;19921;-61
2023/03/31 08:18:30;;;;;;;;;;;17.00;64.50;;;;;;5042627;28;19920;-59
2023/03/31 08:20:56;;;;;;;;;;;17.00;64.70;;;;;;5031806;28;19972;-60
2023/03/31 08:23:21;;;;;;;;;;;16.90;64.70;;;;;;5029009;28;19921;-62
2023/03/31 08:25:47;;;;;;;;;;;16.80;64.70;;;;;;5018475;28;20270;-59
2023/03/31 08:28:13;;;;;;;;;;;16.80;64.90;;;;;;5020789;28;19921;-60
2023/03/31 08:30:39;;;;;;;;;;;16.80;65.00;;;;;;5022346;28;19957;-59
2023/03/31 08:33:06;;;;;;;;;;;16.70;64.90;;;;;;5029026;28;19909;-59
2023/03/31 08:35:32;;;;;;;;;;;16.50;64.80;;;;;;5026181;28;19924;-59
2023/03/31 08:37:57;;;;;;;;;;;16.50;65.20;;;;;;5032768;28;19995;-60
2023/03/31 08:40:24;;;;;;;;;;;16.50;65.10;;;;;;5031572;28;19917;-59
2023/03/31 08:42:52;;;;;;;;;;;16.40;65.30;;;;;;5019389;28;20382;-59
2023/03/31 08:45:22;;;;;;;;;;;16.40;65.30;;;;;;5032442;28;20007;-59
2023/03/31 08:47:50;;;;;;;;;;;16.40;65.50;;;;;;5032460;28;20000;-60
2023/03/31 08:50:18;;;;;;;;;;;16.40;65.60;;;;;;5044552;28;19908;-59
2023/03/31 08:52:54;;;;;;;;;;;16.40;65.70;;;;;;5052179;28;19949;-60
2023/03/31 08:55:23;;;;;;;;;;;16.30;65.60;;;;;;5030967;28;20265;-60
2023/03/31 08:57:51;;;;;;;;;;;16.30;65.70;;;;;;5030267;28;20005;-61
2023/03/31 09:00:17;;;;;;;;;;;16.30;65.90;;;;;;5012930;28;20383;-59
2023/03/31 09:02:51;;;;;;;;;;;16.30;65.90;;;;;;5013215;28;20316;-59
2023/03/31 09:05:21;;;;;;;;;;;16.30;65.80;;;;;;5013891;28;20293;-60
2023/03/31 09:08:01;;;;;;;;;;;16.20;65.80;;;;;;5031765;28;19917;-61
2023/03/31 09:10:34;;;;;;;;;;;16.20;65.80;;;;;;5012599;28;19953;-59
2023/03/31 09:12:59;;;;;;;;;;;16.00;66.00;;;;;;5011246;28;19913;-62
2023/03/31 09:15:34;;;;;;;;;;;15.90;66.10;;;;;;5031913;28;19913;-58
2023/03/31 09:18:03;;;;;;;;;;;16.00;66.10;;;;;;5012825;28;19988;-59
2023/03/31 09:20:37;;;;;;;;;;;16.00;66.10;;;;;;5014234;28;20007;-59
2023/03/31 09:23:14;;;;;;;;;;;16.00;66.00;;;;;;5031925;28;19953;-59
2023/03/31 09:25:40;;;;;;;;;;;16.10;66.00;;;;;;5030067;28;19913;-59
2023/03/31 09:28:12;;;;;;;;;;;16.00;66.10;;;;;;5032187;28;19913;-59
2023/03/31 09:30:40;;;;;;;;;;;16.00;66.10;;;;;;5029919;28;20046;-60
2023/03/31 09:33:05;;;;;;;;;;;15.90;66.10;;;;;;5022280;28;19940;-60
2023/03/31 09:35:32;;;;;;;;;;;15.90;66.40;;;;;;5042849;28;19913;-60
2023/03/31 09:37:58;;;;;;;;;;;16.00;66.20;;;;;;5024198;28;19924;-60
2023/03/31 09:40:25;;;;;;;;;;;16.00;66.40;;;;;;5019237;28;20277;-59
2023/03/31 09:42:53;;;;;;;;;;;16.00;66.30;;;;;;5026796;28;19971;-59
2023/03/31 09:45:19;;;;;;;;;;;16.00;66.40;;;;;;5023551;28;19913;-59
2023/03/31 09:47:52;;;;;;;;;;;16.10;66.40;;;;;;5016292;28;19918;-60
2023/03/31 09:50:19;;;;;;;;;;;16.00;66.60;;;;;;5011720;28;19913;-59
2023/03/31 09:52:50;;;;;;;;;;;16.20;66.50;;;;;;5028764;28;19922;-63
2023/03/31 09:55:34;;;;;;;;;;;16.20;66.50;;;;;;5030535;28;20344;-60
2023/03/31 09:58:00;;;;;;;;;;;16.20;66.50;;;;;;5027751;28;19940;-60
2023/03/31 10:00:26;;;;;;;;;;;16.20;66.40;;;;;;5026535;28;20009;-60
2023/03/31 10:02:53;;;;;;;;;;;16.20;66.20;;;;;;5024797;28;20407;-58
2023/03/31 10:05:27;;;;;;;;;;;16.30;66.20;;;;;;5023120;28;19932;-59
2023/03/31 10:08:11;;;;;;;;;;;16.30;66.30;;;;;;5016646;28;19958;-60
2023/03/31 10:10:37;;;;;;;;;;;16.40;66.50;;;;;;5025571;28;19944;-60
2023/03/31 10:13:07;;;;;;;;;;;16.30;66.50;;;;;;5027479;28;19995;-59
2023/03/31 10:15:36;;;;;;;;;;;16.30;66.40;;;;;;5019524;28;19928;-59
2023/03/31 10:18:01;;;;;;;;;;;16.40;66.50;;;;;;5031798;28;19983;-61
2023/03/31 10:20:32;;;;;;;;;;;16.50;66.50;;;;;;5027983;28;19917;-59
2023/03/31 10:23:01;;;;;;;;;;;16.60;66.50;;;;;;5015754;28;19922;-60
2023/03/31 10:25:27;;;;;;;;;;;16.70;66.50;;;;;;5017673;28;19914;-60
2023/03/31 10:27:54;;;;;;;;;;;16.70;66.70;;;;;;5025080;28;19929;-60
2023/03/31 10:30:29;;;;;;;;;;;16.80;66.50;;;;;;5023519;28;20000;-60
2023/03/31 10:32:54;;;;;;;;;;;17.00;66.80;;;;;;5030423;28;19948;-60
2023/03/31 10:35:22;;;;;;;;;;;17.10;66.90;;;;;;5027927;28;20433;-60
2023/03/31 10:37:49;;;;;;;;;;;17.10;66.70;;;;;;5027122;28;19992;-59
2023/03/31 10:40:18;;;;;;;;;;;17.20;66.60;;;;;;5022851;28;19917;-60
2023/03/31 10:42:44;;;;;;;;;;;17.40;66.80;;;;;;5030448;28;19924;-60
2023/03/31 10:45:11;;;;;;;;;;;17.50;67.00;;;;;;5022016;28;19921;-60
2023/03/31 10:47:38;;;;;;;;;;;17.60;66.60;;;;;;5027410;28;19936;-60
2023/03/31 10:50:08;;;;;;;;;;;17.70;66.60;;;;;;5027231;28;19917;-65
2023/03/31 10:52:41;;;;;;;;;;;17.80;66.30;;;;;;5025445;28;19921;-60
2023/03/31 10:55:11;;;;;;;;;;;17.80;66.30;;;;;;5021956;28;19920;-59
2023/03/31 10:57:48;;;;;;;;;;;18.00;66.30;;;;;;5030618;28;20003;-60
2023/03/31 11:00:17;;;;;;;;;;;18.20;66.40;;;;;;5028014;28;19913;-59
2023/03/31 11:03:02;;;;;;;;;;;18.20;66.30;;;;;;5016779;28;19921;-59
2023/03/31 11:05:46;;;;;;;;;;;18.30;66.30;;;;;;5024407;28;19920;-59
2023/03/31 11:08:22;;;;;;;;;;;18.50;66.60;;;;;;5014122;28;19917;-59
2023/03/31 11:10:57;;;;;;;;;;;18.50;65.80;;;;;;5025355;28;19920;-59
2023/03/31 11:13:22;;;;;;;;;;;18.60;66.10;;;;;;5031546;28;19964;-60
2023/03/31 11:16:07;;;;;;;;;;;18.60;65.90;;;;;;5025147;28;19959;-59
2023/03/31 11:18:45;;;;;;;;;;;18.80;65.70;;;;;;5021479;28;19924;-60
2023/03/31 11:21:22;;;;;;;;;;;18.80;66.30;;;;;;5022268;28;19921;-60
2023/03/31 11:24:06;;;;;;;;;;;19.10;66.60;;;;;;5022017;28;20428;-60
2023/03/31 11:26:41;;;;;;;;;;;19.20;66.40;;;;;;5027570;28;20412;-61
2023/03/31 11:29:24;;;;;;;;;;;19.30;66.40;;;;;;5029601;28;20278;-60
2023/03/31 11:32:14;;;;;;;;;;;19.20;65.70;;;;;;5023604;28;19913;-61
2023/03/31 11:34:40;;;;;;;;;;;19.10;65.50;;;;;;5024945;28;19929;-61
2023/03/31 11:37:06;;;;;;;;;;;19.00;65.40;;;;;;5023172;28;20008;-60
2023/03/31 11:39:37;;;;;;;;;;;19.00;65.50;;;;;;5025791;28;19922;-60
2023/03/31 11:42:07;;;;;;;;;;;18.90;65.30;;;;;;5025197;28;19925;-61
2023/03/31 11:44:39;;;;;;;;;;;18.80;65.10;;;;;;5016100;28;19921;-61
2023/03/31 11:47:07;;;;;;;;;;;18.80;65.50;;;;;;5031163;28;19920;-60
2023/03/31 11:49:50;;;;;;;;;;;18.80;65.70;;;;;;5026466;28;19922;-61
2023/03/31 11:52:16;;;;;;;;;;;18.80;65.90;;;;;;5032537;28;19921;-61
2023/03/31 11:54:49;;;;;;;;;;;18.90;66.00;;;;;;5026545;28;20436;-61
2023/03/31 11:57:18;;;;;;;;;;;19.00;66.00;;;;;;5016861;28;19913;-61
2023/03/31 11:59:45;;;;;;;;;;;19.20;66.20;;;;;;5026622;28;19924;-61
2023/03/31 12:02:16;;;;;;;;;;;19.30;66.20;;;;;;5029227;28;19917;-61
2023/03/31 12:04:42;;;;;;;;;;;19.40;66.10;;;;;;5033158;28;19917;-61
2023/03/31 12:07:21;;;;;;;;;;;19.40;66.10;;;;;;5026158;28;19914;-60
2023/03/31 12:10:04;;;;;;;;;;;19.40;66.00;;;;;;5035752;28;20381;-61
2023/03/31 12:12:35;;;;;;;;;;;19.40;66.20;;;;;;5013768;28;19919;-60
2023/03/31 12:15:05;;;;;;;;;;;19.40;66.00;;;;;;5016560;28;19917;-60
2023/03/31 12:17:31;;;;;;;;;;;19.30;65.90;;;;;;5020218;28;20338;-62
2023/03/31 12:20:12;;;;;;;;;;;19.20;65.70;;;;;;5025526;28;19920;-60
2023/03/31 12:22:44;;;;;;;;;;;19.20;66.00;;;;;;5017131;28;20308;-60
2023/03/31 12:25:13;;;;;;;;;;;19.20;66.50;;;;;;5018605;28;19952;-61
2023/03/31 12:27:40;;;;;;;;;;;19.20;66.10;;;;;;5017459;28;19921;-61
2023/03/31 12:30:10;;;;;;;;;;;19.30;66.30;;;;;;5025033;28;19928;-62
2023/03/31 12:32:37;;;;;;;;;;;19.50;66.50;;;;;;5025291;28;19953;-63
2023/03/31 12:35:06;;;;;;;;;;;19.70;66.30;;;;;;5031055;28;20123;-61
2023/03/31 12:37:39;;;;;;;;;;;20.00;66.70;;;;;;5024587;28;20283;-61
2023/03/31 12:40:16;;;;;;;;;;;20.30;66.50;;;;;;5025956;28;19936;-61
2023/03/31 12:42:48;;;;;;;;;;;20.60;66.40;;;;;;5017543;28;19929;-60
2023/03/31 12:45:26;;;;;;;;;;;20.80;66.20;;;;;;5024202;28;20344;-61
2023/03/31 12:47:58;;;;;;;;;;;21.00;66.00;;;;;;5019610;28;19929;-60
2023/03/31 12:50:44;;;;;;;;;;;21.40;65.60;;;;;;5020998;28;19966;-61
2023/03/31 12:53:17;;;;;;;;;;;21.70;65.00;;;;;;5015447;28;19917;-61
2023/03/31 12:55:50;;;;;;;;;;;21.80;64.30;;;;;;5023738;28;19921;-61
2023/03/31 12:58:28;;;;;;;;;;;22.10;64.60;;;;;;5027152;28;19960;-61
2023/03/31 13:01:00;;;;;;;;;;;22.30;63.80;;;;;;5026486;28;19924;-61
2023/03/31 13:03:34;;;;;;;;;;;22.60;63.40;;;;;;5029163;28;19913;-61
2023/03/31 13:06:00;;;;;;;;;;;22.60;62.90;;;;;;5019144;28;19967;-60
2023/03/31 13:08:45;;;;;;;;;;;22.60;62.60;;;;;;5029583;28;19921;-60
2023/03/31 13:11:10;;;;;;;;;;;22.50;62.20;;;;;;5024447;28;19920;-62
2023/03/31 13:13:39;;;;;;;;;;;22.50;62.80;;;;;;5029201;28;19939;-61
2023/03/31 13:16:05;;;;;;;;;;;22.50;62.70;;;;;;5022993;28;19928;-61
2023/03/31 13:18:32;;;;;;;;;;;22.50;62.90;;;;;;5030592;28;19917;-61
2023/03/31 13:21:02;;;;;;;;;;;22.40;62.00;;;;;;5023631;28;19974;-60
2023/03/31 13:23:29;;;;;;;;;;;22.30;62.00;;;;;;5026592;28;19924;-61
2023/03/31 13:25:56;;;;;;;;;;;21.90;61.70;;;;;;5024483;28;19917;-61
2023/03/31 13:28:21;;;;;;;;;;;21.40;60.90;;;;;;5031573;28;19920;-60
2023/03/31 13:30:51;;;;;;;;;;;20.90;60.60;;;;;;5019538;28;19917;-61
2023/03/31 13:33:27;;;;;;;;;;;20.60;60.60;;;;;;5032910;28;20426;-60
2023/03/31 13:36:00;;;;;;;;;;;20.20;61.10;;;;;;5033445;28;19917;-59
2023/03/31 13:38:30;;;;;;;;;;;19.80;62.10;;;;;;5029155;28;19917;-59
2023/03/31 13:41:07;;;;;;;;;;;19.60;62.10;;;;;;5020066;28;20220;-58
2023/03/31 13:43:36;;;;;;;;;;;19.30;62.80;;;;;;5028396;28;19982;-60
2023/03/31 13:46:13;;;;;;;;;;;19.20;64.00;;;;;;5018439;28;19921;-59
2023/03/31 13:48:42;;;;;;;;;;;19.10;64.30;;;;;;5012983;28;19957;-59
2023/03/31 13:51:11;;;;;;;;;;;19.00;64.50;;;;;;5015444;28;19953;-66
2023/03/31 13:53:55;;;;;;;;;;;19.00;65.00;;;;;;5027941;28;19955;-60
2023/03/31 13:56:39;;;;;;;;;;;19.00;65.40;;;;;;5031271;28;19916;-63
2023/03/31 13:59:20;;;;;;;;;;;19.10;65.90;;;;;;5031047;28;19917;-59
2023/03/31 14:01:55;;;;;;;;;;;19.20;65.70;;;;;;5031145;28;19921;-58
2023/03/31 14:04:23;;;;;;;;;;;19.20;65.60;;;;;;5027820;28;19924;-59
2023/03/31 14:06:51;;;;;;;;;;;19.20;64.90;;;;;;5030987;28;20246;-59
2023/03/31 14:09:23;;;;;;;;;;;19.30;65.10;;;;;;5031060;28;20297;-59
2023/03/31 14:11:49;;;;;;;;;;;19.50;65.10;;;;;;5031122;28;19909;-62
2023/03/31 14:14:16;;;;;;;;;;;19.60;64.60;;;;;;5027741;28;20304;-58
2023/03/31 14:16:46;;;;;;;;;;;19.70;64.90;;;;;;5031160;28;19910;-59
2023/03/31 14:19:30;;;;;;;;;;;19.80;64.30;;;;;;5031308;28;20051;-59
2023/03/31 14:22:06;;;;;;;;;;;19.80;64.00;;;;;;5030574;28;19964;-60
2023/03/31 14:24:38;;;;;;;;;;;19.80;64.20;;;;;;5027422;28;19960;-61
2023/03/31 14:27:24;;;;;;;;;;;19.90;64.60;;;;;;5031123;28;19913;-59